sensor_id;sensor_type;location;lat;lon;timestamp;P1;durP1;ratioP1;P2;durP2;ratioP2
11010;SDS011;5558;42.702;23.178;2022-08-19T00:01:31;3.33;;;3.03;;
11010;SDS011;5558;42.702;23.178;2022-08-19T00:03:59;3.27;;;2.97;;
11010;SDS011;5558;42.702;23.178;2022-08-19T00:06:29;3.20;;;2.90;;
11010;SDS011;5558;42.702;23.178;2022-08-19T00:08:56;3.43;;;2.70;;
11010;SDS011;5558;42.702;23.178;2022-08-19T00:11:25;3.70;;;3.27;;
11010;SDS011;5558;42.702;23.178;2022-08-19T00:13:52;3.00;;;2.70;;
11010;SDS011;5558;42.702;23.178;2022-08-19T00:16:19;3.27;;;2.97;;
11010;SDS011;5558;42.702;23.178;2022-08-19T00:18:47;3.13;;;2.80;;
11010;SDS011;5558;42.702;23.178;2022-08-19T00:21:14;3.43;;;3.10;;
11010;SDS011;5558;42.702;23.178;2022-08-19T00:23:43;4.37;;;3.33;;
11010;SDS011;5558;42.702;23.178;2022-08-19T00:26:10;3.50;;;3.10;;
11010;SDS011;5558;42.702;23.178;2022-08-19T00:28:37;3.70;;;3.37;;
11010;SDS011;5558;42.702;23.178;2022-08-19T00:31:04;3.60;;;3.30;;
11010;SDS011;5558;42.702;23.178;2022-08-19T00:33:31;3.50;;;3.20;;
11010;SDS011;5558;42.702;23.178;2022-08-19T00:35:59;3.30;;;3.10;;
11010;SDS011;5558;42.702;23.178;2022-08-19T00:38:27;3.30;;;3.00;;
11010;SDS011;5558;42.702;23.178;2022-08-19T00:40:55;3.40;;;3.10;;
11010;SDS011;5558;42.702;23.178;2022-08-19T00:43:23;4.10;;;3.20;;
11010;SDS011;5558;42.702;23.178;2022-08-19T00:45:51;3.80;;;3.50;;
11010;SDS011;5558;42.702;23.178;2022-08-19T00:48:18;3.50;;;3.30;;
11010;SDS011;5558;42.702;23.178;2022-08-19T00:50:46;4.40;;;3.10;;
11010;SDS011;5558;42.702;23.178;2022-08-19T00:53:16;4.00;;;3.13;;
11010;SDS011;5558;42.702;23.178;2022-08-19T00:55:46;4.50;;;3.30;;
11010;SDS011;5558;42.702;23.178;2022-08-19T00:58:19;3.37;;;3.07;;
11010;SDS011;5558;42.702;23.178;2022-08-19T01:00:48;3.57;;;3.20;;
11010;SDS011;5558;42.702;23.178;2022-08-19T01:03:19;3.90;;;3.10;;
11010;SDS011;5558;42.702;23.178;2022-08-19T01:05:47;3.50;;;3.20;;
11010;SDS011;5558;42.702;23.178;2022-08-19T01:08:16;3.27;;;2.97;;
11010;SDS011;5558;42.702;23.178;2022-08-19T01:10:45;4.27;;;2.83;;
11010;SDS011;5558;42.702;23.178;2022-08-19T01:13:19;3.70;;;3.30;;
11010;SDS011;5558;42.702;23.178;2022-08-19T01:15:50;3.47;;;3.00;;
11010;SDS011;5558;42.702;23.178;2022-08-19T01:18:21;3.63;;;3.07;;
11010;SDS011;5558;42.702;23.178;2022-08-19T01:20:48;3.20;;;3.00;;
11010;SDS011;5558;42.702;23.178;2022-08-19T01:23:16;3.30;;;3.00;;
11010;SDS011;5558;42.702;23.178;2022-08-19T01:25:44;3.07;;;2.87;;
11010;SDS011;5558;42.702;23.178;2022-08-19T01:28:15;3.67;;;3.27;;
11010;SDS011;5558;42.702;23.178;2022-08-19T01:30:44;3.37;;;3.10;;
11010;SDS011;5558;42.702;23.178;2022-08-19T01:33:12;3.33;;;3.10;;
11010;SDS011;5558;42.702;23.178;2022-08-19T01:35:40;3.30;;;3.00;;
11010;SDS011;5558;42.702;23.178;2022-08-19T01:38:09;3.67;;;3.37;;
11010;SDS011;5558;42.702;23.178;2022-08-19T01:40:46;4.60;;;3.50;;
11010;SDS011;5558;42.702;23.178;2022-08-19T01:43:13;3.30;;;3.00;;
11010;SDS011;5558;42.702;23.178;2022-08-19T01:45:40;3.70;;;3.40;;
11010;SDS011;5558;42.702;23.178;2022-08-19T01:48:07;3.70;;;3.40;;
11010;SDS011;5558;42.702;23.178;2022-08-19T01:50:34;3.63;;;3.33;;
11010;SDS011;5558;42.702;23.178;2022-08-19T01:53:03;3.20;;;3.00;;
11010;SDS011;5558;42.702;23.178;2022-08-19T01:55:32;3.33;;;3.03;;
11010;SDS011;5558;42.702;23.178;2022-08-19T01:58:03;3.40;;;3.13;;
11010;SDS011;5558;42.702;23.178;2022-08-19T02:00:32;3.53;;;3.23;;
11010;SDS011;5558;42.702;23.178;2022-08-19T02:02:58;3.80;;;3.00;;
11010;SDS011;5558;42.702;23.178;2022-08-19T02:05:26;3.30;;;3.00;;
11010;SDS011;5558;42.702;23.178;2022-08-19T02:07:54;3.37;;;3.07;;
11010;SDS011;5558;42.702;23.178;2022-08-19T02:10:21;3.50;;;3.20;;
11010;SDS011;5558;42.702;23.178;2022-08-19T02:12:49;3.20;;;2.90;;
11010;SDS011;5558;42.702;23.178;2022-08-19T02:15:18;3.50;;;3.20;;
11010;SDS011;5558;42.702;23.178;2022-08-19T02:17:45;3.40;;;3.10;;
11010;SDS011;5558;42.702;23.178;2022-08-19T02:20:12;3.97;;;3.20;;
11010;SDS011;5558;42.702;23.178;2022-08-19T02:22:40;5.07;;;3.50;;
11010;SDS011;5558;42.702;23.178;2022-08-19T02:25:08;4.13;;;3.63;;
11010;SDS011;5558;42.702;23.178;2022-08-19T02:27:35;3.27;;;3.00;;
11010;SDS011;5558;42.702;23.178;2022-08-19T02:30:03;3.20;;;3.00;;
11010;SDS011;5558;42.702;23.178;2022-08-19T02:32:33;3.10;;;2.90;;
11010;SDS011;5558;42.702;23.178;2022-08-19T02:34:59;3.10;;;2.80;;
11010;SDS011;5558;42.702;23.178;2022-08-19T02:37:26;3.20;;;3.00;;
11010;SDS011;5558;42.702;23.178;2022-08-19T02:40:11;3.80;;;3.40;;
11010;SDS011;5558;42.702;23.178;2022-08-19T02:42:38;3.50;;;3.20;;
11010;SDS011;5558;42.702;23.178;2022-08-19T02:45:06;3.43;;;3.23;;
11010;SDS011;5558;42.702;23.178;2022-08-19T02:47:34;3.70;;;3.30;;
11010;SDS011;5558;42.702;23.178;2022-08-19T02:50:01;3.73;;;3.43;;
11010;SDS011;5558;42.702;23.178;2022-08-19T02:52:29;3.40;;;3.10;;
11010;SDS011;5558;42.702;23.178;2022-08-19T02:54:57;3.60;;;3.10;;
11010;SDS011;5558;42.702;23.178;2022-08-19T02:57:25;3.33;;;3.00;;
11010;SDS011;5558;42.702;23.178;2022-08-19T02:59:52;3.50;;;3.20;;
11010;SDS011;5558;42.702;23.178;2022-08-19T03:02:19;3.50;;;3.20;;
11010;SDS011;5558;42.702;23.178;2022-08-19T03:04:47;3.90;;;3.20;;
11010;SDS011;5558;42.702;23.178;2022-08-19T03:07:14;4.00;;;3.53;;
11010;SDS011;5558;42.702;23.178;2022-08-19T03:09:42;3.50;;;3.20;;
11010;SDS011;5558;42.702;23.178;2022-08-19T03:12:09;4.90;;;3.50;;
11010;SDS011;5558;42.702;23.178;2022-08-19T03:14:36;4.00;;;3.60;;
11010;SDS011;5558;42.702;23.178;2022-08-19T03:17:04;4.03;;;3.60;;
11010;SDS011;5558;42.702;23.178;2022-08-19T03:19:31;3.90;;;3.50;;
11010;SDS011;5558;42.702;23.178;2022-08-19T03:21:59;3.80;;;3.50;;
11010;SDS011;5558;42.702;23.178;2022-08-19T03:24:27;4.40;;;3.50;;
11010;SDS011;5558;42.702;23.178;2022-08-19T03:26:55;4.53;;;3.53;;
11010;SDS011;5558;42.702;23.178;2022-08-19T03:29:23;4.20;;;3.80;;
11010;SDS011;5558;42.702;23.178;2022-08-19T03:31:51;3.70;;;3.40;;
11010;SDS011;5558;42.702;23.178;2022-08-19T03:34:19;4.00;;;3.70;;
11010;SDS011;5558;42.702;23.178;2022-08-19T03:36:47;3.83;;;3.33;;
11010;SDS011;5558;42.702;23.178;2022-08-19T03:39:16;3.90;;;3.60;;
11010;SDS011;5558;42.702;23.178;2022-08-19T03:41:43;4.13;;;3.77;;
11010;SDS011;5558;42.702;23.178;2022-08-19T03:44:14;3.90;;;3.60;;
11010;SDS011;5558;42.702;23.178;2022-08-19T03:46:46;3.70;;;3.40;;
11010;SDS011;5558;42.702;23.178;2022-08-19T03:49:14;4.00;;;3.53;;
11010;SDS011;5558;42.702;23.178;2022-08-19T03:51:41;3.60;;;3.10;;
11010;SDS011;5558;42.702;23.178;2022-08-19T03:54:10;4.07;;;3.43;;
11010;SDS011;5558;42.702;23.178;2022-08-19T03:56:40;3.77;;;3.47;;
11010;SDS011;5558;42.702;23.178;2022-08-19T03:59:09;3.50;;;3.20;;
11010;SDS011;5558;42.702;23.178;2022-08-19T04:01:38;3.53;;;3.20;;
11010;SDS011;5558;42.702;23.178;2022-08-19T04:04:06;3.50;;;3.20;;
11010;SDS011;5558;42.702;23.178;2022-08-19T04:06:33;3.40;;;3.10;;
11010;SDS011;5558;42.702;23.178;2022-08-19T04:09:03;3.53;;;3.23;;
11010;SDS011;5558;42.702;23.178;2022-08-19T04:11:33;3.70;;;3.23;;
11010;SDS011;5558;42.702;23.178;2022-08-19T04:14:02;3.60;;;3.30;;
11010;SDS011;5558;42.702;23.178;2022-08-19T04:16:29;3.67;;;3.30;;
11010;SDS011;5558;42.702;23.178;2022-08-19T04:18:56;6.83;;;3.47;;
11010;SDS011;5558;42.702;23.178;2022-08-19T04:21:27;3.60;;;3.30;;
11010;SDS011;5558;42.702;23.178;2022-08-19T04:23:55;3.50;;;3.20;;
11010;SDS011;5558;42.702;23.178;2022-08-19T04:26:23;3.20;;;2.90;;
11010;SDS011;5558;42.702;23.178;2022-08-19T04:28:52;3.60;;;3.30;;
11010;SDS011;5558;42.702;23.178;2022-08-19T04:31:22;4.33;;;3.23;;
11010;SDS011;5558;42.702;23.178;2022-08-19T04:33:51;3.63;;;3.30;;
11010;SDS011;5558;42.702;23.178;2022-08-19T04:36:20;3.83;;;2.90;;
11010;SDS011;5558;42.702;23.178;2022-08-19T04:38:48;3.93;;;3.40;;
11010;SDS011;5558;42.702;23.178;2022-08-19T04:41:16;4.23;;;3.37;;
11010;SDS011;5558;42.702;23.178;2022-08-19T04:44:01;3.50;;;3.20;;
11010;SDS011;5558;42.702;23.178;2022-08-19T04:46:29;3.40;;;3.10;;
11010;SDS011;5558;42.702;23.178;2022-08-19T04:48:57;3.50;;;3.20;;
11010;SDS011;5558;42.702;23.178;2022-08-19T04:51:24;3.47;;;3.03;;
11010;SDS011;5558;42.702;23.178;2022-08-19T04:53:51;3.40;;;3.10;;
11010;SDS011;5558;42.702;23.178;2022-08-19T04:56:18;4.67;;;3.03;;
11010;SDS011;5558;42.702;23.178;2022-08-19T04:58:47;3.50;;;3.20;;
11010;SDS011;5558;42.702;23.178;2022-08-19T05:01:17;3.30;;;3.00;;
11010;SDS011;5558;42.702;23.178;2022-08-19T05:03:46;3.80;;;3.40;;
11010;SDS011;5558;42.702;23.178;2022-08-19T05:06:14;3.70;;;3.30;;
11010;SDS011;5558;42.702;23.178;2022-08-19T05:08:41;3.70;;;3.37;;
11010;SDS011;5558;42.702;23.178;2022-08-19T05:11:11;4.10;;;3.80;;
11010;SDS011;5558;42.702;23.178;2022-08-19T05:13:38;3.77;;;3.40;;
11010;SDS011;5558;42.702;23.178;2022-08-19T05:16:05;4.03;;;3.70;;
11010;SDS011;5558;42.702;23.178;2022-08-19T05:18:33;3.97;;;3.57;;
11010;SDS011;5558;42.702;23.178;2022-08-19T05:21:18;4.00;;;3.60;;
11010;SDS011;5558;42.702;23.178;2022-08-19T05:24:03;4.53;;;3.30;;
11010;SDS011;5558;42.702;23.178;2022-08-19T05:26:33;3.60;;;3.30;;
11010;SDS011;5558;42.702;23.178;2022-08-19T05:29:01;4.43;;;3.70;;
11010;SDS011;5558;42.702;23.178;2022-08-19T05:31:28;4.50;;;3.50;;
11010;SDS011;5558;42.702;23.178;2022-08-19T05:33:55;3.63;;;3.33;;
11010;SDS011;5558;42.702;23.178;2022-08-19T05:36:25;3.67;;;3.37;;
11010;SDS011;5558;42.702;23.178;2022-08-19T05:38:51;3.90;;;3.50;;
11010;SDS011;5558;42.702;23.178;2022-08-19T05:41:19;3.53;;;3.10;;
11010;SDS011;5558;42.702;23.178;2022-08-19T05:43:46;4.73;;;3.47;;
11010;SDS011;5558;42.702;23.178;2022-08-19T05:46:15;4.23;;;3.07;;
11010;SDS011;5558;42.702;23.178;2022-08-19T05:48:43;3.43;;;3.10;;
11010;SDS011;5558;42.702;23.178;2022-08-19T05:51:10;3.40;;;3.10;;
11010;SDS011;5558;42.702;23.178;2022-08-19T05:53:38;4.60;;;3.53;;
11010;SDS011;5558;42.702;23.178;2022-08-19T05:56:05;3.60;;;3.30;;
11010;SDS011;5558;42.702;23.178;2022-08-19T05:58:32;3.60;;;3.27;;
11010;SDS011;5558;42.702;23.178;2022-08-19T06:00:59;4.00;;;3.60;;
11010;SDS011;5558;42.702;23.178;2022-08-19T06:03:29;4.60;;;3.22;;
11010;SDS011;5558;42.702;23.178;2022-08-19T06:05:56;3.78;;;3.30;;
11010;SDS011;5558;42.702;23.178;2022-08-19T06:08:24;5.10;;;3.75;;
11010;SDS011;5558;42.702;23.178;2022-08-19T06:10:53;4.45;;;3.50;;
11010;SDS011;5558;42.702;23.178;2022-08-19T06:13:20;4.50;;;3.67;;
11010;SDS011;5558;42.702;23.178;2022-08-19T06:15:49;4.18;;;3.88;;
11010;SDS011;5558;42.702;23.178;2022-08-19T06:18:16;3.95;;;3.65;;
11010;SDS011;5558;42.702;23.178;2022-08-19T06:20:44;4.20;;;3.80;;
11010;SDS011;5558;42.702;23.178;2022-08-19T06:23:11;3.83;;;3.53;;
11010;SDS011;5558;42.702;23.178;2022-08-19T06:25:38;4.25;;;3.88;;
11010;SDS011;5558;42.702;23.178;2022-08-19T06:28:07;4.18;;;3.70;;
11010;SDS011;5558;42.702;23.178;2022-08-19T06:30:33;3.95;;;3.65;;
11010;SDS011;5558;42.702;23.178;2022-08-19T06:33:02;4.80;;;3.80;;
11010;SDS011;5558;42.702;23.178;2022-08-19T06:35:29;5.60;;;4.05;;
11010;SDS011;5558;42.702;23.178;2022-08-19T06:37:56;4.43;;;3.95;;
11010;SDS011;5558;42.702;23.178;2022-08-19T06:40:22;5.03;;;3.60;;
11010;SDS011;5558;42.702;23.178;2022-08-19T06:42:49;7.18;;;4.60;;
11010;SDS011;5558;42.702;23.178;2022-08-19T06:45:17;4.30;;;3.90;;
11010;SDS011;5558;42.702;23.178;2022-08-19T06:47:45;4.15;;;3.80;;
11010;SDS011;5558;42.702;23.178;2022-08-19T06:50:13;6.75;;;5.07;;
11010;SDS011;5558;42.702;23.178;2022-08-19T06:52:40;5.40;;;4.88;;
11010;SDS011;5558;42.702;23.178;2022-08-19T06:55:07;10.52;;;7.32;;
11010;SDS011;5558;42.702;23.178;2022-08-19T06:57:34;5.73;;;4.90;;
11010;SDS011;5558;42.702;23.178;2022-08-19T07:00:03;5.30;;;4.28;;
11010;SDS011;5558;42.702;23.178;2022-08-19T07:02:34;5.10;;;4.10;;
11010;SDS011;5558;42.702;23.178;2022-08-19T07:05:03;6.00;;;4.30;;
11010;SDS011;5558;42.702;23.178;2022-08-19T07:07:30;6.43;;;4.27;;
11010;SDS011;5558;42.702;23.178;2022-08-19T07:09:57;6.50;;;4.83;;
11010;SDS011;5558;42.702;23.178;2022-08-19T07:12:24;5.93;;;4.10;;
11010;SDS011;5558;42.702;23.178;2022-08-19T07:14:51;5.47;;;4.23;;
11010;SDS011;5558;42.702;23.178;2022-08-19T07:17:17;4.73;;;4.17;;
11010;SDS011;5558;42.702;23.178;2022-08-19T07:19:46;5.97;;;4.27;;
11010;SDS011;5558;42.702;23.178;2022-08-19T07:22:15;7.37;;;3.90;;
11010;SDS011;5558;42.702;23.178;2022-08-19T07:24:43;5.13;;;4.30;;
11010;SDS011;5558;42.702;23.178;2022-08-19T07:27:10;6.13;;;4.10;;
11010;SDS011;5558;42.702;23.178;2022-08-19T07:29:42;4.90;;;4.20;;
11010;SDS011;5558;42.702;23.178;2022-08-19T07:32:08;6.77;;;4.63;;
11010;SDS011;5558;42.702;23.178;2022-08-19T07:34:36;5.20;;;4.40;;
11010;SDS011;5558;42.702;23.178;2022-08-19T07:37:05;6.10;;;4.30;;
11010;SDS011;5558;42.702;23.178;2022-08-19T07:39:34;6.13;;;4.30;;
11010;SDS011;5558;42.702;23.178;2022-08-19T07:42:03;5.57;;;4.37;;
11010;SDS011;5558;42.702;23.178;2022-08-19T07:44:33;6.83;;;5.23;;
11010;SDS011;5558;42.702;23.178;2022-08-19T07:47:00;5.87;;;4.40;;
11010;SDS011;5558;42.702;23.178;2022-08-19T07:49:28;5.97;;;4.10;;
11010;SDS011;5558;42.702;23.178;2022-08-19T07:51:56;4.87;;;4.20;;
11010;SDS011;5558;42.702;23.178;2022-08-19T07:54:29;5.80;;;4.17;;
11010;SDS011;5558;42.702;23.178;2022-08-19T07:57:01;5.17;;;4.20;;
11010;SDS011;5558;42.702;23.178;2022-08-19T07:59:30;5.50;;;4.23;;
11010;SDS011;5558;42.702;23.178;2022-08-19T08:01:57;5.10;;;3.80;;
11010;SDS011;5558;42.702;23.178;2022-08-19T08:04:25;7.60;;;4.33;;
11010;SDS011;5558;42.702;23.178;2022-08-19T08:07:09;6.00;;;3.93;;
11010;SDS011;5558;42.702;23.178;2022-08-19T08:09:55;4.67;;;4.10;;
11010;SDS011;5558;42.702;23.178;2022-08-19T08:12:23;4.63;;;4.20;;
11010;SDS011;5558;42.702;23.178;2022-08-19T08:14:54;5.20;;;3.97;;
11010;SDS011;5558;42.702;23.178;2022-08-19T08:17:23;4.87;;;4.20;;
11010;SDS011;5558;42.702;23.178;2022-08-19T08:19:52;4.50;;;4.10;;
11010;SDS011;5558;42.702;23.178;2022-08-19T08:22:20;4.80;;;3.77;;
11010;SDS011;5558;42.702;23.178;2022-08-19T08:25:08;4.23;;;3.40;;
11010;SDS011;5558;42.702;23.178;2022-08-19T08:27:36;3.90;;;3.50;;
11010;SDS011;5558;42.702;23.178;2022-08-19T08:30:05;7.33;;;3.93;;
11010;SDS011;5558;42.702;23.178;2022-08-19T08:32:34;4.37;;;3.83;;
11010;SDS011;5558;42.702;23.178;2022-08-19T08:35:01;4.37;;;3.97;;
11010;SDS011;5558;42.702;23.178;2022-08-19T08:37:28;4.20;;;3.70;;
11010;SDS011;5558;42.702;23.178;2022-08-19T08:39:55;6.07;;;3.80;;
11010;SDS011;5558;42.702;23.178;2022-08-19T08:42:24;5.30;;;3.90;;
11010;SDS011;5558;42.702;23.178;2022-08-19T08:44:58;4.27;;;3.37;;
11010;SDS011;5558;42.702;23.178;2022-08-19T08:47:27;3.80;;;3.03;;
11010;SDS011;5558;42.702;23.178;2022-08-19T08:50:01;4.20;;;3.50;;
11010;SDS011;5558;42.702;23.178;2022-08-19T08:52:31;4.53;;;3.53;;
11010;SDS011;5558;42.702;23.178;2022-08-19T08:55:03;3.90;;;3.10;;
11010;SDS011;5558;42.702;23.178;2022-08-19T08:57:36;3.13;;;2.67;;
11010;SDS011;5558;42.702;23.178;2022-08-19T09:00:12;3.80;;;3.07;;
11010;SDS011;5558;42.702;23.178;2022-08-19T09:02:43;4.23;;;3.20;;
11010;SDS011;5558;42.702;23.178;2022-08-19T09:05:10;3.37;;;3.00;;
11010;SDS011;5558;42.702;23.178;2022-08-19T09:07:40;3.00;;;2.70;;
11010;SDS011;5558;42.702;23.178;2022-08-19T09:10:15;3.40;;;2.87;;
11010;SDS011;5558;42.702;23.178;2022-08-19T09:12:51;3.77;;;3.20;;
11010;SDS011;5558;42.702;23.178;2022-08-19T09:15:25;2.90;;;2.67;;
11010;SDS011;5558;42.702;23.178;2022-08-19T09:17:59;2.43;;;2.20;;
11010;SDS011;5558;42.702;23.178;2022-08-19T09:20:28;3.03;;;2.80;;
11010;SDS011;5558;42.702;23.178;2022-08-19T09:22:56;2.90;;;2.60;;
11010;SDS011;5558;42.702;23.178;2022-08-19T09:25:24;2.40;;;2.20;;
11010;SDS011;5558;42.702;23.178;2022-08-19T09:27:54;2.50;;;2.30;;
11010;SDS011;5558;42.702;23.178;2022-08-19T09:30:23;2.60;;;2.40;;
11010;SDS011;5558;42.702;23.178;2022-08-19T09:32:51;2.80;;;2.40;;
11010;SDS011;5558;42.702;23.178;2022-08-19T09:35:19;2.43;;;2.30;;
11010;SDS011;5558;42.702;23.178;2022-08-19T09:37:47;3.03;;;2.53;;
11010;SDS011;5558;42.702;23.178;2022-08-19T09:40:15;3.00;;;2.70;;
11010;SDS011;5558;42.702;23.178;2022-08-19T09:42:43;3.33;;;2.63;;
11010;SDS011;5558;42.702;23.178;2022-08-19T09:45:13;2.70;;;2.50;;
11010;SDS011;5558;42.702;23.178;2022-08-19T09:47:40;3.03;;;2.60;;
11010;SDS011;5558;42.702;23.178;2022-08-19T09:50:08;2.53;;;2.40;;
11010;SDS011;5558;42.702;23.178;2022-08-19T09:52:36;4.53;;;2.77;;
11010;SDS011;5558;42.702;23.178;2022-08-19T09:55:04;2.80;;;2.50;;
11010;SDS011;5558;42.702;23.178;2022-08-19T09:57:31;3.40;;;2.60;;
11010;SDS011;5558;42.702;23.178;2022-08-19T09:59:58;2.83;;;2.60;;
11010;SDS011;5558;42.702;23.178;2022-08-19T10:02:26;2.80;;;2.60;;
11010;SDS011;5558;42.702;23.178;2022-08-19T10:04:52;3.40;;;2.50;;
11010;SDS011;5558;42.702;23.178;2022-08-19T10:07:37;2.40;;;2.20;;
11010;SDS011;5558;42.702;23.178;2022-08-19T10:10:04;2.93;;;2.13;;
11010;SDS011;5558;42.702;23.178;2022-08-19T10:12:32;2.90;;;2.43;;
11010;SDS011;5558;42.702;23.178;2022-08-19T10:14:59;2.40;;;2.20;;
11010;SDS011;5558;42.702;23.178;2022-08-19T10:17:27;4.00;;;2.70;;
11010;SDS011;5558;42.702;23.178;2022-08-19T10:19:54;3.97;;;2.70;;
11010;SDS011;5558;42.702;23.178;2022-08-19T10:22:21;3.07;;;2.70;;
11010;SDS011;5558;42.702;23.178;2022-08-19T10:24:48;2.80;;;2.60;;
11010;SDS011;5558;42.702;23.178;2022-08-19T10:27:16;3.20;;;2.57;;
11010;SDS011;5558;42.702;23.178;2022-08-19T10:29:43;3.00;;;2.70;;
11010;SDS011;5558;42.702;23.178;2022-08-19T10:32:09;4.40;;;2.70;;
11010;SDS011;5558;42.702;23.178;2022-08-19T10:34:38;3.10;;;2.90;;
11010;SDS011;5558;42.702;23.178;2022-08-19T10:37:05;3.47;;;3.17;;
11010;SDS011;5558;42.702;23.178;2022-08-19T10:39:33;4.43;;;3.20;;
11010;SDS011;5558;42.702;23.178;2022-08-19T10:42:03;3.53;;;3.23;;
11010;SDS011;5558;42.702;23.178;2022-08-19T10:44:31;3.20;;;2.70;;
11010;SDS011;5558;42.702;23.178;2022-08-19T10:47:00;3.57;;;2.70;;
11010;SDS011;5558;42.702;23.178;2022-08-19T10:49:27;4.37;;;3.00;;
11010;SDS011;5558;42.702;23.178;2022-08-19T10:51:55;2.80;;;2.50;;
11010;SDS011;5558;42.702;23.178;2022-08-19T10:54:55;3.03;;;2.67;;
11010;SDS011;5558;42.702;23.178;2022-08-19T10:57:39;3.43;;;2.90;;
11010;SDS011;5558;42.702;23.178;2022-08-19T11:00:06;3.17;;;2.93;;
11010;SDS011;5558;42.702;23.178;2022-08-19T11:02:33;3.10;;;2.80;;
11010;SDS011;5558;42.702;23.178;2022-08-19T11:05:02;3.63;;;2.70;;
11010;SDS011;5558;42.702;23.178;2022-08-19T11:07:31;3.40;;;2.77;;
11010;SDS011;5558;42.702;23.178;2022-08-19T11:09:57;3.30;;;3.00;;
11010;SDS011;5558;42.702;23.178;2022-08-19T11:12:24;3.43;;;3.10;;
11010;SDS011;5558;42.702;23.178;2022-08-19T11:14:52;3.20;;;2.93;;
11010;SDS011;5558;42.702;23.178;2022-08-19T11:17:19;3.37;;;2.80;;
11010;SDS011;5558;42.702;23.178;2022-08-19T11:19:48;3.13;;;2.73;;
11010;SDS011;5558;42.702;23.178;2022-08-19T11:22:15;5.07;;;2.80;;
11010;SDS011;5558;42.702;23.178;2022-08-19T11:24:43;3.40;;;2.90;;
11010;SDS011;5558;42.702;23.178;2022-08-19T11:27:10;3.43;;;2.80;;
11010;SDS011;5558;42.702;23.178;2022-08-19T11:29:37;3.00;;;2.53;;
11010;SDS011;5558;42.702;23.178;2022-08-19T11:32:05;4.00;;;2.77;;
11010;SDS011;5558;42.702;23.178;2022-08-19T11:34:34;3.57;;;2.90;;
11010;SDS011;5558;42.702;23.178;2022-08-19T11:37:01;3.53;;;2.77;;
11010;SDS011;5558;42.702;23.178;2022-08-19T11:39:31;3.00;;;2.80;;
11010;SDS011;5558;42.702;23.178;2022-08-19T11:42:02;2.93;;;2.63;;
11010;SDS011;5558;42.702;23.178;2022-08-19T11:44:51;4.07;;;3.00;;
11010;SDS011;5558;42.702;23.178;2022-08-19T11:47:18;3.90;;;2.83;;
11010;SDS011;5558;42.702;23.178;2022-08-19T11:49:45;5.43;;;3.17;;
11010;SDS011;5558;42.702;23.178;2022-08-19T11:52:11;3.97;;;2.80;;
11010;SDS011;5558;42.702;23.178;2022-08-19T11:54:38;3.30;;;3.00;;
11010;SDS011;5558;42.702;23.178;2022-08-19T11:57:06;4.63;;;3.00;;
11010;SDS011;5558;42.702;23.178;2022-08-19T11:59:33;4.10;;;3.03;;
11010;SDS011;5558;42.702;23.178;2022-08-19T12:02:00;3.67;;;2.90;;
11010;SDS011;5558;42.702;23.178;2022-08-19T12:04:27;4.13;;;2.80;;
11010;SDS011;5558;42.702;23.178;2022-08-19T12:06:53;4.00;;;2.63;;
11010;SDS011;5558;42.702;23.178;2022-08-19T12:09:20;4.27;;;3.00;;
11010;SDS011;5558;42.702;23.178;2022-08-19T12:11:47;3.43;;;2.77;;
11010;SDS011;5558;42.702;23.178;2022-08-19T12:14:17;3.60;;;2.70;;
11010;SDS011;5558;42.702;23.178;2022-08-19T12:16:44;2.80;;;2.60;;
11010;SDS011;5558;42.702;23.178;2022-08-19T12:19:12;3.43;;;2.80;;
11010;SDS011;5558;42.702;23.178;2022-08-19T12:21:39;3.33;;;2.60;;
11010;SDS011;5558;42.702;23.178;2022-08-19T12:24:06;3.90;;;2.80;;
11010;SDS011;5558;42.702;23.178;2022-08-19T12:26:33;4.23;;;2.80;;
11010;SDS011;5558;42.702;23.178;2022-08-19T12:29:00;3.60;;;2.80;;
11010;SDS011;5558;42.702;23.178;2022-08-19T12:31:29;3.17;;;2.60;;
11010;SDS011;5558;42.702;23.178;2022-08-19T12:33:56;3.97;;;2.70;;
11010;SDS011;5558;42.702;23.178;2022-08-19T12:36:27;3.10;;;2.60;;
11010;SDS011;5558;42.702;23.178;2022-08-19T12:38:54;3.20;;;2.70;;
11010;SDS011;5558;42.702;23.178;2022-08-19T12:41:23;2.80;;;2.60;;
11010;SDS011;5558;42.702;23.178;2022-08-19T12:43:50;3.57;;;2.90;;
11010;SDS011;5558;42.702;23.178;2022-08-19T12:46:17;3.33;;;2.70;;
11010;SDS011;5558;42.702;23.178;2022-08-19T12:48:46;4.23;;;3.17;;
11010;SDS011;5558;42.702;23.178;2022-08-19T12:51:14;4.63;;;2.80;;
11010;SDS011;5558;42.702;23.178;2022-08-19T12:53:44;5.33;;;3.00;;
11010;SDS011;5558;42.702;23.178;2022-08-19T12:56:13;3.67;;;3.00;;
11010;SDS011;5558;42.702;23.178;2022-08-19T12:58:40;3.67;;;2.90;;
11010;SDS011;5558;42.702;23.178;2022-08-19T13:01:08;4.33;;;2.90;;
11010;SDS011;5558;42.702;23.178;2022-08-19T13:03:36;3.30;;;3.00;;
11010;SDS011;5558;42.702;23.178;2022-08-19T13:06:05;3.17;;;2.87;;
11010;SDS011;5558;42.702;23.178;2022-08-19T13:08:32;4.27;;;2.90;;
11010;SDS011;5558;42.702;23.178;2022-08-19T13:11:06;3.30;;;2.70;;
11010;SDS011;5558;42.702;23.178;2022-08-19T13:13:33;4.60;;;3.00;;
11010;SDS011;5558;42.702;23.178;2022-08-19T13:16:00;3.30;;;2.97;;
11010;SDS011;5558;42.702;23.178;2022-08-19T13:18:28;3.93;;;3.10;;
11010;SDS011;5558;42.702;23.178;2022-08-19T13:20:56;3.10;;;2.70;;
11010;SDS011;5558;42.702;23.178;2022-08-19T13:23:24;3.53;;;2.83;;
11010;SDS011;5558;42.702;23.178;2022-08-19T13:25:57;3.97;;;2.80;;
11010;SDS011;5558;42.702;23.178;2022-08-19T13:28:25;3.70;;;3.00;;
11010;SDS011;5558;42.702;23.178;2022-08-19T13:31:14;4.80;;;2.70;;
11010;SDS011;5558;42.702;23.178;2022-08-19T13:33:58;2.90;;;2.60;;
11010;SDS011;5558;42.702;23.178;2022-08-19T13:36:25;3.30;;;2.87;;
11010;SDS011;5558;42.702;23.178;2022-08-19T13:38:54;4.17;;;3.00;;
11010;SDS011;5558;42.702;23.178;2022-08-19T13:41:21;3.90;;;2.90;;
11010;SDS011;5558;42.702;23.178;2022-08-19T13:43:48;3.07;;;2.70;;
11010;SDS011;5558;42.702;23.178;2022-08-19T13:46:15;3.03;;;2.70;;
11010;SDS011;5558;42.702;23.178;2022-08-19T13:48:42;4.27;;;3.00;;
11010;SDS011;5558;42.702;23.178;2022-08-19T13:51:10;3.50;;;2.90;;
11010;SDS011;5558;42.702;23.178;2022-08-19T13:53:36;3.43;;;3.10;;
11010;SDS011;5558;42.702;23.178;2022-08-19T13:56:06;3.33;;;2.70;;
11010;SDS011;5558;42.702;23.178;2022-08-19T13:58:33;3.80;;;3.00;;
11010;SDS011;5558;42.702;23.178;2022-08-19T14:01:00;6.93;;;2.77;;
11010;SDS011;5558;42.702;23.178;2022-08-19T14:03:27;5.10;;;2.83;;
11010;SDS011;5558;42.702;23.178;2022-08-19T14:05:54;4.43;;;2.90;;
11010;SDS011;5558;42.702;23.178;2022-08-19T14:08:21;3.67;;;3.00;;
11010;SDS011;5558;42.702;23.178;2022-08-19T14:10:48;4.20;;;2.77;;
11010;SDS011;5558;42.702;23.178;2022-08-19T14:13:17;3.33;;;2.90;;
11010;SDS011;5558;42.702;23.178;2022-08-19T14:15:46;3.40;;;3.10;;
11010;SDS011;5558;42.702;23.178;2022-08-19T14:18:13;5.07;;;3.33;;
11010;SDS011;5558;42.702;23.178;2022-08-19T14:20:40;3.43;;;2.83;;
11010;SDS011;5558;42.702;23.178;2022-08-19T14:23:07;4.47;;;3.00;;
11010;SDS011;5558;42.702;23.178;2022-08-19T14:25:34;3.77;;;3.00;;
11010;SDS011;5558;42.702;23.178;2022-08-19T14:28:01;3.57;;;3.00;;
11010;SDS011;5558;42.702;23.178;2022-08-19T14:30:30;3.40;;;3.10;;
11010;SDS011;5558;42.702;23.178;2022-08-19T14:33:00;3.20;;;2.90;;
11010;SDS011;5558;42.702;23.178;2022-08-19T14:35:28;3.40;;;3.10;;
11010;SDS011;5558;42.702;23.178;2022-08-19T14:37:58;3.20;;;2.90;;
11010;SDS011;5558;42.702;23.178;2022-08-19T14:40:26;3.80;;;3.40;;
11010;SDS011;5558;42.702;23.178;2022-08-19T14:42:55;3.10;;;2.80;;
11010;SDS011;5558;42.702;23.178;2022-08-19T14:45:24;4.33;;;3.00;;
11010;SDS011;5558;42.702;23.178;2022-08-19T14:47:54;5.07;;;3.10;;
11010;SDS011;5558;42.702;23.178;2022-08-19T14:50:20;4.30;;;3.07;;
11010;SDS011;5558;42.702;23.178;2022-08-19T14:52:48;3.30;;;2.97;;
11010;SDS011;5558;42.702;23.178;2022-08-19T14:55:16;3.90;;;3.20;;
11010;SDS011;5558;42.702;23.178;2022-08-19T14:57:44;4.53;;;3.23;;